Barmouth, United Kingdom
Current Conditions -  °F | °C
As of 8:50 AM on Monday 24 Nov 2014 (Local Time) from EGOV Reporting Station
Scattered Clouds Scattered Clouds  
Wind Chill: 44°   Ceiling: Unl
Heat Index: 48°   Visibility: 6mi
Dew Point: 36°   Wind: 9mph
Humidity: 62%   Direction: 230°SW
Pressure: 30.27"   Gusts: NA
Location:  52.72°N, 4.06°W
Report Text: EGOV 240850Z 23008KT 9999 FEW030 SCT200 09/02 Q1025 BLU NOSIG
Loading
Personal Weather Stations






























Interactive Weather Map New forecast layout! Learn more

10-Day Weather Forecast

Advertisements
Track Severe Weather on mobile